Time;durP1;ratioP1;P1;durP2;ratioP2;P2;SDS_P1;SDS_P2;PMS_P1;PMS_P2;Temp;Humidity;BMP_temperature;BMP_pressure;BME280_temperature;BME280_humidity;BME280_pressure;Samples;Min_cycle;Max_cycle;Signal;HPM_P1;HPM_P2
2022/08/13 00:01:56;;;;;;;6.72;2.97;;;;;;;;;;5050030;28;20198;-73
2022/08/13 00:04:24;;;;;;;4.05;2.92;;;;;;;;;;5051926;28;20044;-76
2022/08/13 00:09:22;;;;;;;4.00;2.83;;;;;;;;;;5051122;28;20063;-72
2022/08/13 00:14:35;;;;;;;6.97;2.92;;;;;;;;;;5057628;28;20244;-72
2022/08/13 00:17:01;;;;;;;4.15;2.53;;;;;;;;;;5054340;28;20032;-72
2022/08/13 00:19:30;;;;;;;4.32;2.80;;;;;;;;;;5055913;28;20033;-72
2022/08/13 00:21:59;;;;;;;8.32;2.75;;;;;;;;;;5058439;28;20071;-72
2022/08/13 00:24:26;;;;;;;4.88;3.00;;;;;;;;;;5060620;28;20150;-72
2022/08/13 00:26:52;;;;;;;5.57;3.00;;;;;;;;;;5057855;28;20384;-71
2022/08/13 00:29:18;;;;;;;5.20;3.00;;;;;;;;;;5049445;28;20063;-72
2022/08/13 00:31:49;;;;;;;5.53;2.80;;;;;;;;;;5050391;28;20134;-71
2022/08/13 00:34:16;;;;;;;8.88;3.10;;;;;;;;;;5053952;28;20027;-72
2022/08/13 00:36:41;;;;;;;5.13;2.88;;;;;;;;;;5057451;28;20337;-73
2022/08/13 00:39:09;;;;;;;3.50;2.50;;;;;;;;;;5050611;28;20056;-74
2022/08/13 00:41:41;;;;;;;6.18;2.60;;;;;;;;;;5054286;28;20025;-74
2022/08/13 00:44:10;;;;;;;4.07;2.80;;;;;;;;;;5056474;28;20067;-74
2022/08/13 00:46:37;;;;;;;4.93;2.58;;;;;;;;;;5058736;28;20040;-74
2022/08/13 00:49:03;;;;;;;6.00;2.80;;;;;;;;;;5059502;28;20029;-73
2022/08/13 00:51:30;;;;;;;7.57;2.90;;;;;;;;;;5060145;28;20037;-72
2022/08/13 00:53:58;;;;;;;3.70;2.47;;;;;;;;;;5051721;28;20025;-73
2022/08/13 00:56:24;;;;;;;4.40;2.70;;;;;;;;;;5051803;28;20025;-74
2022/08/13 00:58:51;;;;;;;4.22;2.40;;;;;;;;;;5055286;28;20026;-72
2022/08/13 01:01:20;;;;;;;3.63;2.33;;;;;;;;;;5052449;28;20191;-74
2022/08/13 01:03:46;;;;;;;7.03;2.60;;;;;;;;;;5040096;28;20303;-72
2022/08/13 01:06:12;;;;;;;5.60;2.42;;;;;;;;;;5048985;28;20407;-74
2022/08/13 01:08:40;;;;;;;4.68;2.60;;;;;;;;;;5053592;28;20033;-74
2022/08/13 01:11:08;;;;;;;4.72;2.30;;;;;;;;;;5057640;28;20029;-74
2022/08/13 01:13:36;;;;;;;5.20;2.40;;;;;;;;;;5050755;28;20092;-74
2022/08/13 01:16:06;;;;;;;3.38;2.28;;;;;;;;;;5057025;28;20220;-74
2022/08/13 01:18:36;;;;;;;4.70;2.58;;;;;;;;;;5055467;28;20076;-73
2022/08/13 01:21:16;;;;;;;4.53;2.50;;;;;;;;;;5053957;28;20055;-74
2022/08/13 01:23:45;;;;;;;3.75;2.35;;;;;;;;;;5058209;28;20032;-74
2022/08/13 01:26:12;;;;;;;3.30;2.40;;;;;;;;;;5053320;28;20036;-74
2022/08/13 01:28:38;;;;;;;7.03;2.40;;;;;;;;;;5054228;28;20021;-74
2022/08/13 01:31:06;;;;;;;3.40;2.30;;;;;;;;;;5052625;28;20055;-74
2022/08/13 01:33:35;;;;;;;3.85;2.20;;;;;;;;;;5052522;28;20065;-74
2022/08/13 01:36:06;;;;;;;3.78;2.50;;;;;;;;;;5058763;28;20025;-74
2022/08/13 01:38:34;;;;;;;3.60;2.60;;;;;;;;;;5050134;28;20032;-73
2022/08/13 01:41:02;;;;;;;5.43;2.45;;;;;;;;;;5057537;28;20021;-74
2022/08/13 01:43:30;;;;;;;5.28;2.30;;;;;;;;;;5059131;28;20066;-74
2022/08/13 01:45:59;;;;;;;7.03;2.38;;;;;;;;;;5055079;28;20021;-74
2022/08/13 01:51:21;;;;;;;4.47;2.60;;;;;;;;;;5054126;28;20051;-74
2022/08/13 01:53:53;;;;;;;5.20;2.42;;;;;;;;;;5050498;28;20104;-74
2022/08/13 01:56:23;;;;;;;4.68;2.47;;;;;;;;;;5058789;28;20021;-74
2022/08/13 01:58:53;;;;;;;4.47;2.30;;;;;;;;;;5054330;28;20075;-74
2022/08/13 02:01:24;;;;;;;5.95;2.45;;;;;;;;;;5058483;28;20045;-74
2022/08/13 02:03:53;;;;;;;4.07;2.30;;;;;;;;;;5058315;28;20103;-74
2022/08/13 02:06:28;;;;;;;4.60;2.33;;;;;;;;;;5059991;28;20067;-73
2022/08/13 02:08:57;;;;;;;4.75;2.50;;;;;;;;;;5059697;28;20033;-74
2022/08/13 02:11:24;;;;;;;7.57;2.40;;;;;;;;;;5057446;28;20316;-74
2022/08/13 02:13:52;;;;;;;5.53;2.40;;;;;;;;;;5045512;28;20088;-74
2022/08/13 02:16:18;;;;;;;5.10;2.58;;;;;;;;;;5058983;28;20047;-75
2022/08/13 02:18:44;;;;;;;5.68;2.40;;;;;;;;;;5058654;28;20324;-74
2022/08/13 02:21:11;;;;;;;4.90;2.38;;;;;;;;;;5061145;28;20025;-74
2022/08/13 02:23:36;;;;;;;6.53;2.60;;;;;;;;;;5061007;28;20016;-75
2022/08/13 02:26:05;;;;;;;3.40;2.30;;;;;;;;;;5062914;28;20344;-76
2022/08/13 02:28:37;;;;;;;4.82;2.47;;;;;;;;;;5060449;28;20070;-76
2022/08/13 02:31:03;;;;;;;4.97;2.50;;;;;;;;;;5055101;28;20021;-76
2022/08/13 02:33:28;;;;;;;4.97;2.50;;;;;;;;;;5060503;28;20075;-74
2022/08/13 02:35:54;;;;;;;3.55;2.35;;;;;;;;;;5054930;28;20032;-75
2022/08/13 02:38:20;;;;;;;5.45;2.50;;;;;;;;;;5058759;28;20040;-76
2022/08/13 02:43:31;;;;;;;4.22;2.30;;;;;;;;;;5060090;28;20255;-76
2022/08/13 02:45:57;;;;;;;3.78;2.33;;;;;;;;;;5059407;28;20031;-74
2022/08/13 02:48:24;;;;;;;5.63;2.42;;;;;;;;;;5060885;28;20056;-76
2022/08/13 02:50:55;;;;;;;5.70;2.72;;;;;;;;;;5062109;28;20021;-74
2022/08/13 02:53:21;;;;;;;5.53;2.30;;;;;;;;;;5062384;28;20031;-75
2022/08/13 02:55:52;;;;;;;3.53;2.15;;;;;;;;;;5054146;28;20037;-76
2022/08/13 02:58:19;;;;;;;2.97;2.22;;;;;;;;;;5052952;28;20067;-75
2022/08/13 03:00:48;;;;;;;3.50;2.30;;;;;;;;;;5055646;28;20358;-75
2022/08/13 03:03:15;;;;;;;4.22;2.28;;;;;;;;;;5056480;28;20025;-76
2022/08/13 03:05:41;;;;;;;6.45;2.60;;;;;;;;;;5053096;28;20031;-76
2022/08/13 03:08:07;;;;;;;3.28;2.30;;;;;;;;;;5054154;28;20316;-76
2022/08/13 03:10:32;;;;;;;8.48;2.20;;;;;;;;;;5049531;28;20304;-75
2022/08/13 03:13:04;;;;;;;6.05;2.40;;;;;;;;;;5055405;28;20147;-76
2022/08/13 03:15:30;;;;;;;5.80;2.50;;;;;;;;;;5056075;28;20309;-75
2022/08/13 03:17:56;;;;;;;3.90;2.20;;;;;;;;;;5052461;28;20024;-73
2022/08/13 03:20:21;;;;;;;4.63;2.30;;;;;;;;;;5057839;28;20232;-76
2022/08/13 03:22:53;;;;;;;3.15;2.10;;;;;;;;;;5060741;28;20325;-77
2022/08/13 03:25:21;;;;;;;3.28;2.20;;;;;;;;;;5060742;28;20024;-76
2022/08/13 03:27:48;;;;;;;3.90;2.35;;;;;;;;;;5061806;28;20099;-74
2022/08/13 03:30:16;;;;;;;3.30;2.20;;;;;;;;;;5053601;28;20139;-76
2022/08/13 03:32:44;;;;;;;5.68;2.40;;;;;;;;;;5052977;28;20029;-76
2022/08/13 03:35:13;;;;;;;7.75;2.30;;;;;;;;;;5054066;28;20017;-76
2022/08/13 03:37:40;;;;;;;5.80;2.55;;;;;;;;;;5055538;28;20025;-76
2022/08/13 03:40:06;;;;;;;4.43;2.30;;;;;;;;;;5058012;28;20032;-76
2022/08/13 03:42:32;;;;;;;3.63;2.20;;;;;;;;;;5051665;28;20103;-76
2022/08/13 03:44:57;;;;;;;6.82;2.53;;;;;;;;;;5059304;28;20044;-76
2022/08/13 03:47:23;;;;;;;4.63;2.40;;;;;;;;;;5057598;28;20105;-76
2022/08/13 03:49:49;;;;;;;9.20;2.40;;;;;;;;;;5060371;28;20094;-75
2022/08/13 03:52:14;;;;;;;7.28;2.28;;;;;;;;;;5060755;28;20343;-76
2022/08/13 03:54:40;;;;;;;4.45;2.70;;;;;;;;;;5055530;28;20031;-75
2022/08/13 03:57:06;;;;;;;5.13;2.40;;;;;;;;;;5056034;28;20081;-76
2022/08/13 03:59:32;;;;;;;3.50;2.30;;;;;;;;;;5051673;28;20029;-76
2022/08/13 04:02:01;;;;;;;4.95;2.60;;;;;;;;;;5057931;28;20013;-75
2022/08/13 04:04:27;;;;;;;5.82;2.50;;;;;;;;;;5054261;28;20022;-75
2022/08/13 04:06:53;;;;;;;7.95;2.35;;;;;;;;;;5057274;28;20024;-77
2022/08/13 04:09:18;;;;;;;5.35;2.47;;;;;;;;;;5056908;28;20158;-77
2022/08/13 04:11:46;;;;;;;4.18;2.50;;;;;;;;;;5061069;28;20112;-76
2022/08/13 04:14:12;;;;;;;4.45;2.50;;;;;;;;;;5059256;28;20021;-76
2022/08/13 04:16:37;;;;;;;8.07;2.40;;;;;;;;;;5055402;28;20610;-76
2022/08/13 04:19:02;;;;;;;4.47;2.30;;;;;;;;;;5060147;28;20024;-74
2022/08/13 04:21:31;;;;;;;9.23;2.47;;;;;;;;;;5058520;28;20036;-74
2022/08/13 04:23:57;;;;;;;7.28;2.35;;;;;;;;;;5050006;28;20209;-74
2022/08/13 04:26:25;;;;;;;4.57;2.22;;;;;;;;;;5055000;28;20024;-73
2022/08/13 04:28:53;;;;;;;4.97;2.45;;;;;;;;;;5053359;28;20048;-74
2022/08/13 04:31:19;;;;;;;5.95;2.33;;;;;;;;;;5056811;28;20083;-73
2022/08/13 04:33:45;;;;;;;4.60;2.30;;;;;;;;;;5056425;28;20194;-73
2022/08/13 04:36:11;;;;;;;5.05;2.35;;;;;;;;;;5057201;28;20092;-73
2022/08/13 04:38:37;;;;;;;5.18;2.15;;;;;;;;;;5058314;28;20445;-73
2022/08/13 04:41:03;;;;;;;4.78;2.47;;;;;;;;;;5053270;28;20029;-73
2022/08/13 04:43:29;;;;;;;6.97;2.28;;;;;;;;;;5059966;28;20025;-74
2022/08/13 04:45:58;;;;;;;3.20;2.30;;;;;;;;;;5057181;28;20379;-72
2022/08/13 04:48:25;;;;;;;5.78;2.20;;;;;;;;;;5055071;28;20033;-73
2022/08/13 04:50:52;;;;;;;4.05;2.33;;;;;;;;;;5053550;28;20032;-74
2022/08/13 04:53:31;;;;;;;6.38;2.20;;;;;;;;;;5053286;28;20088;-73
2022/08/13 04:55:57;;;;;;;5.25;2.28;;;;;;;;;;5054879;28;20328;-73
2022/08/13 04:58:24;;;;;;;4.75;2.50;;;;;;;;;;5053081;28;20040;-73
2022/08/13 05:00:50;;;;;;;4.03;2.38;;;;;;;;;;5056449;28;20025;-73
2022/08/13 05:03:22;;;;;;;3.88;2.38;;;;;;;;;;5056356;28;20071;-73
2022/08/13 05:05:51;;;;;;;4.30;2.40;;;;;;;;;;5059125;28;20025;-73
2022/08/13 05:08:17;;;;;;;5.00;2.50;;;;;;;;;;5059080;28;20088;-73
2022/08/13 05:10:44;;;;;;;5.57;2.40;;;;;;;;;;5053946;28;20051;-73
2022/08/13 05:13:27;;;;;;;3.75;2.58;;;;;;;;;;5050955;28;20045;-73
2022/08/13 05:15:54;;;;;;;3.45;2.30;;;;;;;;;;5050764;28;20029;-74
2022/08/13 05:18:20;;;;;;;6.22;2.72;;;;;;;;;;5051440;28;20291;-73
2022/08/13 05:20:45;;;;;;;8.32;2.40;;;;;;;;;;5058400;28;20033;-73
2022/08/13 05:23:13;;;;;;;3.80;2.42;;;;;;;;;;5054046;28;20025;-73
2022/08/13 05:25:40;;;;;;;6.97;2.30;;;;;;;;;;5059442;28;20021;-73
2022/08/13 05:28:07;;;;;;;3.88;2.40;;;;;;;;;;5059542;28;20088;-73
2022/08/13 05:30:34;;;;;;;5.95;2.20;;;;;;;;;;5049836;28;20032;-73
2022/08/13 05:33:00;;;;;;;3.67;2.40;;;;;;;;;;5058118;28;20037;-73
2022/08/13 05:35:27;;;;;;;5.82;2.40;;;;;;;;;;5055397;28;20059;-73
2022/08/13 05:37:53;;;;;;;5.28;2.20;;;;;;;;;;5058453;28;20025;-73
2022/08/13 05:40:18;;;;;;;4.57;2.40;;;;;;;;;;5059872;28;20205;-73
2022/08/13 05:42:44;;;;;;;3.78;2.30;;;;;;;;;;5049369;28;20025;-73
2022/08/13 05:45:10;;;;;;;4.43;2.33;;;;;;;;;;5061608;28;20025;-73
2022/08/13 05:47:36;;;;;;;9.48;2.50;;;;;;;;;;5060264;28;20028;-73
2022/08/13 05:50:13;;;;;;;7.53;2.58;;;;;;;;;;5062636;28;20485;-73
2022/08/13 05:52:40;;;;;;;4.85;2.55;;;;;;;;;;5062277;28;20070;-73
2022/08/13 05:55:07;;;;;;;5.03;2.60;;;;;;;;;;5057296;28;20043;-73
2022/08/13 05:57:33;;;;;;;5.82;2.60;;;;;;;;;;5049603;28;20032;-74
2022/08/13 06:05:26;;;;;;;3.83;2.10;;;;;;;;;;5055247;28;20028;-75
2022/08/13 06:07:52;;;;;;;4.60;2.42;;;;;;;;;;5057658;28;20021;-75
2022/08/13 06:10:19;;;;;;;4.35;2.30;;;;;;;;;;5060740;28;20116;-73
2022/08/13 06:12:45;;;;;;;6.18;2.40;;;;;;;;;;5062084;28;20017;-75
2022/08/13 06:15:11;;;;;;;5.07;2.40;;;;;;;;;;5058100;28;20564;-75
2022/08/13 06:17:37;;;;;;;4.18;2.30;;;;;;;;;;5042298;28;20041;-75
2022/08/13 06:20:05;;;;;;;5.60;2.40;;;;;;;;;;5058668;28;20024;-75
2022/08/13 06:22:33;;;;;;;3.10;2.33;;;;;;;;;;5058776;28;20028;-75
2022/08/13 06:25:02;;;;;;;4.82;2.70;;;;;;;;;;5056337;28;20072;-74
2022/08/13 06:27:28;;;;;;;5.97;2.58;;;;;;;;;;5062427;28;20374;-75
2022/08/13 06:29:54;;;;;;;5.70;2.50;;;;;;;;;;5062995;28;20033;-75
2022/08/13 06:32:23;;;;;;;3.85;2.30;;;;;;;;;;5051317;28;20025;-75
2022/08/13 06:34:50;;;;;;;6.07;2.50;;;;;;;;;;5052168;28;20021;-75
2022/08/13 06:37:16;;;;;;;4.72;2.53;;;;;;;;;;5053739;28;20075;-75
2022/08/13 06:39:44;;;;;;;5.70;2.70;;;;;;;;;;5055888;28;20255;-76
2022/08/13 06:42:11;;;;;;;6.50;2.40;;;;;;;;;;5056292;28;20086;-75
2022/08/13 06:44:41;;;;;;;6.28;2.30;;;;;;;;;;5060058;28;20031;-76
2022/08/13 06:47:07;;;;;;;6.90;2.20;;;;;;;;;;5059279;28;20029;-76
2022/08/13 06:49:34;;;;;;;6.53;2.42;;;;;;;;;;5061769;28;20033;-75
2022/08/13 06:52:00;;;;;;;4.38;2.40;;;;;;;;;;5061757;28;20025;-74
2022/08/13 06:54:26;;;;;;;5.43;2.40;;;;;;;;;;5057082;28;20037;-74
2022/08/13 06:56:53;;;;;;;5.25;2.30;;;;;;;;;;5056622;28;20273;-74
2022/08/13 06:59:21;;;;;;;7.35;2.40;;;;;;;;;;5052826;28;20029;-74
2022/08/13 07:01:47;;;;;;;8.05;2.30;;;;;;;;;;5056793;28;20043;-73
2022/08/13 07:04:18;;;;;;;2.92;2.10;;;;;;;;;;5060349;28;20028;-73
2022/08/13 07:06:47;;;;;;;5.00;2.20;;;;;;;;;;5058498;28;20044;-74
2022/08/13 07:09:13;;;;;;;8.65;2.10;;;;;;;;;;5057840;28;20045;-74
2022/08/13 07:11:45;;;;;;;4.57;2.30;;;;;;;;;;5059721;28;20067;-74
2022/08/13 07:14:13;;;;;;;4.95;2.30;;;;;;;;;;5055341;28;20028;-74
2022/08/13 07:16:40;;;;;;;3.67;2.08;;;;;;;;;;5055261;28;20032;-74
2022/08/13 07:19:05;;;;;;;3.42;2.25;;;;;;;;;;5058794;28;20028;-74
2022/08/13 07:21:31;;;;;;;3.25;2.13;;;;;;;;;;5057211;28;20096;-75
2022/08/13 07:24:00;;;;;;;5.22;2.30;;;;;;;;;;5058288;28;20035;-75
2022/08/13 07:26:29;;;;;;;5.57;1.92;;;;;;;;;;5060725;28;20059;-74
2022/08/13 07:28:54;;;;;;;5.90;2.20;;;;;;;;;;5061134;28;20049;-74
2022/08/13 07:31:29;;;;;;;4.75;2.20;;;;;;;;;;5055226;28;20028;-73
2022/08/13 07:33:57;;;;;;;7.72;2.20;;;;;;;;;;5056033;28;20325;-73
2022/08/13 07:36:25;;;;;;;7.72;2.20;;;;;;;;;;5056933;28;20325;-73
2022/08/13 07:38:51;;;;;;;3.92;2.38;;;;;;;;;;5053704;28;20029;-74
2022/08/13 07:41:19;;;;;;;9.82;2.20;;;;;;;;;;5057751;28;20183;-74
2022/08/13 07:43:46;;;;;;;4.25;2.25;;;;;;;;;;5058315;28;20036;-74
2022/08/13 07:46:15;;;;;;;3.45;2.10;;;;;;;;;;5059041;28;20036;-73
2022/08/13 07:48:42;;;;;;;4.85;2.30;;;;;;;;;;5058985;28;20061;-74
2022/08/13 07:51:19;;;;;;;5.07;2.30;;;;;;;;;;5059965;28;20025;-76
2022/08/13 07:53:54;;;;;;;4.13;2.15;;;;;;;;;;5057292;28;20032;-75
2022/08/13 07:56:31;;;;;;;3.33;1.92;;;;;;;;;;5051457;28;20025;-75
2022/08/13 07:59:00;;;;;;;3.58;2.00;;;;;;;;;;5057088;28;20065;-75
2022/08/13 08:01:30;;;;;;;5.43;2.10;;;;;;;;;;5053058;28;20352;-76
2022/08/13 08:03:58;;;;;;;5.45;2.20;;;;;;;;;;5058544;28;20092;-76
2022/08/13 08:06:24;;;;;;;4.85;2.45;;;;;;;;;;5056890;28;20029;-76
2022/08/13 08:08:52;;;;;;;6.43;2.30;;;;;;;;;;5056031;28;20044;-75
2022/08/13 08:14:03;;;;;;;4.47;2.10;;;;;;;;;;5059974;28;20040;-75
2022/08/13 08:16:31;;;;;;;4.43;2.00;;;;;;;;;;5059903;28;20317;-76
2022/08/13 08:19:00;;;;;;;6.97;2.35;;;;;;;;;;5060313;28;20055;-76
2022/08/13 08:21:27;;;;;;;4.28;2.00;;;;;;;;;;5053436;28;20070;-75
2022/08/13 08:24:01;;;;;;;4.38;1.98;;;;;;;;;;5050558;28;20333;-74
2022/08/13 08:26:29;;;;;;;5.90;2.08;;;;;;;;;;5054838;28;20041;-75
2022/08/13 08:28:58;;;;;;;3.35;1.92;;;;;;;;;;5054016;28;20039;-75
2022/08/13 08:31:25;;;;;;;4.00;2.00;;;;;;;;;;5055839;28;20040;-74
2022/08/13 08:33:51;;;;;;;4.47;1.90;;;;;;;;;;5054553;28;20108;-74
2022/08/13 08:36:17;;;;;;;4.60;1.92;;;;;;;;;;5056247;28;20031;-74
2022/08/13 08:44:23;;;;;;;2.50;1.80;;;;;;;;;;5059089;28;20082;-75
2022/08/13 08:46:59;;;;;;;5.80;2.10;;;;;;;;;;5059919;28;20025;-73
2022/08/13 08:49:24;;;;;;;4.40;1.80;;;;;;;;;;5055379;28;20467;-74
2022/08/13 08:51:51;;;;;;;2.72;1.90;;;;;;;;;;5056629;28;20029;-74
2022/08/13 08:54:18;;;;;;;3.05;1.80;;;;;;;;;;5058501;28;20060;-73
2022/08/13 08:56:46;;;;;;;6.75;2.08;;;;;;;;;;5052713;28;20217;-74
2022/08/13 08:59:13;;;;;;;5.65;1.75;;;;;;;;;;5059814;28;20396;-73
2022/08/13 09:01:40;;;;;;;3.85;1.63;;;;;;;;;;5056365;28;20297;-74
2022/08/13 09:04:08;;;;;;;2.67;1.80;;;;;;;;;;5055555;28;20308;-74
2022/08/13 09:06:34;;;;;;;6.68;1.70;;;;;;;;;;5054686;28;20032;-73
2022/08/13 09:09:01;;;;;;;3.97;1.70;;;;;;;;;;5047519;28;20237;-74
2022/08/13 09:11:32;;;;;;;3.20;1.80;;;;;;;;;;5047877;28;20304;-72
2022/08/13 09:13:58;;;;;;;3.17;1.77;;;;;;;;;;5042730;28;20071;-73
2022/08/13 09:16:24;;;;;;;3.08;1.60;;;;;;;;;;5044717;28;20031;-73
2022/08/13 09:18:51;;;;;;;4.57;1.88;;;;;;;;;;5040992;28;20021;-73
2022/08/13 09:21:17;;;;;;;3.05;1.70;;;;;;;;;;5049505;28;20017;-74
2022/08/13 09:23:46;;;;;;;5.53;1.60;;;;;;;;;;5047853;28;20450;-74
2022/08/13 09:26:14;;;;;;;2.38;1.55;;;;;;;;;;5047092;28;20023;-73
2022/08/13 09:28:42;;;;;;;4.75;1.77;;;;;;;;;;5057243;28;20028;-73
2022/08/13 09:31:07;;;;;;;7.38;1.80;;;;;;;;;;5056538;28;20076;-73
2022/08/13 09:33:38;;;;;;;3.35;1.60;;;;;;;;;;5043653;28;20387;-73
2022/08/13 09:36:06;;;;;;;4.53;1.80;;;;;;;;;;5045964;28;20089;-73
2022/08/13 09:38:31;;;;;;;3.83;1.75;;;;;;;;;;5052545;28;20021;-72
2022/08/13 09:41:35;;;;;;;4.25;1.85;;;;;;;;;;5053639;28;20071;-75
2022/08/13 09:44:00;;;;;;;3.67;1.77;;;;;;;;;;5052954;28;20127;-76
2022/08/13 09:46:27;;;;;;;3.97;1.80;;;;;;;;;;5054035;28;20278;-76
2022/08/13 09:48:55;;;;;;;4.22;1.70;;;;;;;;;;5057557;28;20047;-74
2022/08/13 09:51:22;;;;;;;4.78;1.77;;;;;;;;;;5037550;28;20021;-77
2022/08/13 09:53:47;;;;;;;3.92;1.85;;;;;;;;;;5059476;28;20025;-75
2022/08/13 09:56:17;;;;;;;3.75;1.70;;;;;;;;;;5053259;28;20030;-76
2022/08/13 09:58:43;;;;;;;2.40;1.60;;;;;;;;;;5049087;28;20344;-74
2022/08/13 10:01:09;;;;;;;3.67;1.70;;;;;;;;;;5044197;28;20088;-75
2022/08/13 10:03:38;;;;;;;4.10;1.63;;;;;;;;;;5055553;28;20059;-76
2022/08/13 10:06:04;;;;;;;3.88;1.90;;;;;;;;;;5054614;28;20095;-75
2022/08/13 10:08:29;;;;;;;4.13;1.70;;;;;;;;;;5055355;28;20045;-73
2022/08/13 10:10:54;;;;;;;3.97;1.80;;;;;;;;;;5059086;28;20031;-74
2022/08/13 10:13:20;;;;;;;3.95;1.50;;;;;;;;;;5053351;28;20025;-75
2022/08/13 10:15:45;;;;;;;4.93;1.80;;;;;;;;;;5058877;28;20029;-75
2022/08/13 10:18:11;;;;;;;3.13;1.73;;;;;;;;;;5047818;28;20055;-74
2022/08/13 10:20:38;;;;;;;4.00;1.90;;;;;;;;;;5051512;28;20347;-75
2022/08/13 10:23:06;;;;;;;2.60;1.80;;;;;;;;;;5049682;28;20025;-75
2022/08/13 10:25:32;;;;;;;3.55;1.80;;;;;;;;;;5048706;28;20018;-77
2022/08/13 10:27:57;;;;;;;3.95;1.98;;;;;;;;;;5050150;28;20312;-74
2022/08/13 10:30:25;;;;;;;4.00;1.80;;;;;;;;;;5053371;28;20045;-75
2022/08/13 10:32:55;;;;;;;5.53;1.80;;;;;;;;;;5054827;28;20421;-74
2022/08/13 10:35:28;;;;;;;5.00;1.80;;;;;;;;;;5054678;28;20021;-74
2022/08/13 10:37:56;;;;;;;3.60;2.20;;;;;;;;;;5052996;28;20093;-75
2022/08/13 10:40:23;;;;;;;2.88;1.90;;;;;;;;;;5056508;28;20029;-74
2022/08/13 10:42:49;;;;;;;3.83;1.90;;;;;;;;;;5041251;28;20036;-74
2022/08/13 10:45:15;;;;;;;3.53;1.60;;;;;;;;;;5052315;28;20048;-75
2022/08/13 10:47:46;;;;;;;2.75;1.80;;;;;;;;;;5055606;28;20320;-74
2022/08/13 10:50:13;;;;;;;4.85;1.85;;;;;;;;;;5050854;28;20024;-74
2022/08/13 10:52:39;;;;;;;5.72;1.98;;;;;;;;;;5049371;28;20032;-76
2022/08/13 10:55:08;;;;;;;2.50;1.80;;;;;;;;;;5049192;28;20025;-76
2022/08/13 10:57:36;;;;;;;4.68;1.70;;;;;;;;;;5052721;28;20026;-75
2022/08/13 11:00:04;;;;;;;3.33;1.90;;;;;;;;;;5043092;28;20029;-73
2022/08/13 11:02:29;;;;;;;4.47;1.88;;;;;;;;;;5054572;28;20025;-76
2022/08/13 11:04:54;;;;;;;3.58;1.70;;;;;;;;;;5053762;28;20104;-79
2022/08/13 11:07:21;;;;;;;7.88;2.05;;;;;;;;;;5047590;28;20368;-78
2022/08/13 11:09:46;;;;;;;2.83;1.80;;;;;;;;;;5047436;28;20052;-76
2022/08/13 11:12:12;;;;;;;3.28;1.80;;;;;;;;;;5044700;28;20053;-72
2022/08/13 11:14:41;;;;;;;3.60;1.70;;;;;;;;;;5034246;28;20033;-74
2022/08/13 11:17:09;;;;;;;4.32;1.67;;;;;;;;;;5034863;28;20051;-73
2022/08/13 11:19:38;;;;;;;3.42;1.80;;;;;;;;;;5035680;28;20049;-75
2022/08/13 11:22:04;;;;;;;6.05;1.80;;;;;;;;;;5032739;28;20032;-76
2022/08/13 11:24:29;;;;;;;3.45;1.80;;;;;;;;;;5034309;28;20021;-76
2022/08/13 11:26:54;;;;;;;5.72;1.90;;;;;;;;;;5035567;28;20033;-76
2022/08/13 11:29:20;;;;;;;2.10;1.60;;;;;;;;;;5035025;28;20022;-72
2022/08/13 11:31:45;;;;;;;5.95;2.00;;;;;;;;;;5034646;28;20064;-73
2022/08/13 11:34:10;;;;;;;3.75;1.70;;;;;;;;;;5034478;28;20063;-73
2022/08/13 11:36:36;;;;;;;3.40;1.77;;;;;;;;;;5034970;28;20241;-72
2022/08/13 11:39:02;;;;;;;4.78;1.70;;;;;;;;;;5037538;28;20116;-76
2022/08/13 11:41:27;;;;;;;2.55;1.70;;;;;;;;;;5034979;28;20097;-72
2022/08/13 11:43:53;;;;;;;3.60;1.50;;;;;;;;;;5033655;28;20032;-73
2022/08/13 11:46:20;;;;;;;3.85;1.70;;;;;;;;;;5034365;28;20021;-78
2022/08/13 11:48:45;;;;;;;3.25;1.60;;;;;;;;;;5033943;28;20030;-76
2022/08/13 11:51:11;;;;;;;5.65;2.03;;;;;;;;;;5034772;28;20214;-76
2022/08/13 11:53:36;;;;;;;3.33;1.65;;;;;;;;;;5035125;28;20044;-73
2022/08/13 11:56:03;;;;;;;4.78;1.60;;;;;;;;;;5036276;28;20085;-75
2022/08/13 11:58:28;;;;;;;2.90;1.50;;;;;;;;;;5041421;28;20029;-77
2022/08/13 12:00:54;;;;;;;2.67;1.50;;;;;;;;;;5052348;28;20254;-77
2022/08/13 12:03:20;;;;;;;4.93;1.73;;;;;;;;;;5046832;28;20087;-76
2022/08/13 12:05:46;;;;;;;5.05;1.60;;;;;;;;;;5047583;28;20021;-78
2022/08/13 12:08:19;;;;;;;4.38;1.75;;;;;;;;;;5045643;28;20024;-77
2022/08/13 12:10:45;;;;;;;4.97;1.70;;;;;;;;;;5048874;28;20037;-78
2022/08/13 12:13:11;;;;;;;3.65;1.55;;;;;;;;;;5052165;28;20084;-79
2022/08/13 12:15:37;;;;;;;2.80;1.50;;;;;;;;;;5046621;28;20025;-78
2022/08/13 12:18:02;;;;;;;1.90;1.50;;;;;;;;;;5048983;28;20063;-81
2022/08/13 12:20:27;;;;;;;1.88;1.40;;;;;;;;;;5047933;28;20025;-81
2022/08/13 12:22:58;;;;;;;4.93;1.40;;;;;;;;;;5044524;28;20044;-81
2022/08/13 12:25:26;;;;;;;3.13;1.60;;;;;;;;;;5045665;28;20056;-80
2022/08/13 12:28:11;;;;;;;4.35;1.60;;;;;;;;;;5048079;28;20027;-78
2022/08/13 12:30:37;;;;;;;3.88;1.55;;;;;;;;;;5046558;28;20033;-78
2022/08/13 12:33:04;;;;;;;4.93;1.40;;;;;;;;;;5049643;28;20370;-79
2022/08/13 12:35:29;;;;;;;3.70;1.58;;;;;;;;;;5048610;28;20081;-80
2022/08/13 12:37:55;;;;;;;4.93;1.60;;;;;;;;;;5047951;28;20320;-75
2022/08/13 12:40:20;;;;;;;3.75;1.60;;;;;;;;;;5045517;28;20029;-77
2022/08/13 12:42:45;;;;;;;3.17;1.60;;;;;;;;;;5051713;28;20091;-74
2022/08/13 12:45:11;;;;;;;3.03;1.60;;;;;;;;;;5053614;28;20086;-72
2022/08/13 12:47:37;;;;;;;5.05;1.92;;;;;;;;;;5054314;28;20028;-71
2022/08/13 12:50:03;;;;;;;4.00;1.70;;;;;;;;;;5059091;28;20032;-71
2022/08/13 12:52:29;;;;;;;4.38;1.70;;;;;;;;;;5055469;28;20247;-76
2022/08/13 12:54:54;;;;;;;5.50;1.63;;;;;;;;;;5058607;28;20090;-77
2022/08/13 12:57:19;;;;;;;3.08;1.60;;;;;;;;;;5058208;28;20016;-77
2022/08/13 12:59:45;;;;;;;5.10;1.50;;;;;;;;;;5053157;28;20048;-77
2022/08/13 13:02:10;;;;;;;6.45;1.50;;;;;;;;;;5052094;28;20029;-76
2022/08/13 13:04:41;;;;;;;2.40;1.55;;;;;;;;;;5050466;28;20071;-72
2022/08/13 13:07:06;;;;;;;5.28;1.60;;;;;;;;;;5051876;28;20029;-73
2022/08/13 13:09:32;;;;;;;2.22;1.60;;;;;;;;;;5052484;28;20048;-77
2022/08/13 13:11:57;;;;;;;2.70;1.50;;;;;;;;;;5039554;28;20052;-72
2022/08/13 13:14:23;;;;;;;3.17;1.50;;;;;;;;;;5056139;28;20024;-77
2022/08/13 13:16:48;;;;;;;2.10;1.38;;;;;;;;;;5050274;28;20101;-77
2022/08/13 13:19:14;;;;;;;2.08;1.55;;;;;;;;;;5059304;28;20032;-75
2022/08/13 13:21:40;;;;;;;5.78;1.70;;;;;;;;;;5048220;28;20104;-78
2022/08/13 13:24:10;;;;;;;3.13;1.58;;;;;;;;;;5054300;28;20378;-75
2022/08/13 13:26:35;;;;;;;4.18;1.50;;;;;;;;;;5049635;28;20305;-76
2022/08/13 13:29:01;;;;;;;2.58;1.50;;;;;;;;;;5055937;28;20059;-78
2022/08/13 13:31:26;;;;;;;3.35;1.60;;;;;;;;;;5052005;28;20409;-77
2022/08/13 13:33:52;;;;;;;5.15;1.70;;;;;;;;;;5055357;28;20051;-78
2022/08/13 13:36:18;;;;;;;3.70;1.50;;;;;;;;;;5059545;28;20425;-78
2022/08/13 13:38:43;;;;;;;2.22;1.77;;;;;;;;;;5053363;28;20403;-77
2022/08/13 13:41:09;;;;;;;4.38;1.60;;;;;;;;;;5056032;28;20032;-78
2022/08/13 13:43:35;;;;;;;2.92;1.60;;;;;;;;;;5059133;28;20056;-78
2022/08/13 13:46:02;;;;;;;2.97;1.60;;;;;;;;;;5051528;28;20193;-78
2022/08/13 13:48:40;;;;;;;2.60;1.70;;;;;;;;;;5053580;28;20244;-77
2022/08/13 13:51:08;;;;;;;2.90;1.70;;;;;;;;;;5052953;28;20036;-76
2022/08/13 13:53:35;;;;;;;2.72;1.73;;;;;;;;;;5046055;28;20052;-78
2022/08/13 13:56:02;;;;;;;2.85;1.50;;;;;;;;;;5059406;28;20032;-77
2022/08/13 13:58:28;;;;;;;2.03;1.50;;;;;;;;;;5060690;28;20021;-77
2022/08/13 14:00:54;;;;;;;7.32;1.80;;;;;;;;;;5055429;28;20037;-80
2022/08/13 14:03:23;;;;;;;2.50;1.50;;;;;;;;;;5061275;28;20317;-79
2022/08/13 14:05:48;;;;;;;3.42;1.55;;;;;;;;;;5057518;28;20079;-79
2022/08/13 14:08:15;;;;;;;4.65;1.50;;;;;;;;;;5050672;28;20096;-78
2022/08/13 14:10:42;;;;;;;3.05;1.50;;;;;;;;;;5043691;28;20210;-80
2022/08/13 14:13:08;;;;;;;6.38;1.50;;;;;;;;;;5060860;28;20044;-78
2022/08/13 14:15:35;;;;;;;2.85;1.33;;;;;;;;;;5054576;28;20016;-77
2022/08/13 14:18:06;;;;;;;3.60;1.60;;;;;;;;;;5056878;28;20070;-78
2022/08/13 14:20:33;;;;;;;3.42;1.50;;;;;;;;;;5061478;28;20056;-77
2022/08/13 14:22:59;;;;;;;2.28;1.52;;;;;;;;;;5059147;28;20059;-78
2022/08/13 14:25:25;;;;;;;3.60;1.50;;;;;;;;;;5062332;28;20021;-77
2022/08/13 14:27:51;;;;;;;4.95;1.42;;;;;;;;;;5062246;28;20035;-76
2022/08/13 14:30:16;;;;;;;3.60;1.38;;;;;;;;;;5050452;28;20033;-78
2022/08/13 14:32:42;;;;;;;3.00;1.50;;;;;;;;;;5054491;28;20055;-76
2022/08/13 14:35:10;;;;;;;4.55;1.40;;;;;;;;;;5048339;28;20029;-78
2022/08/13 14:37:38;;;;;;;3.47;1.50;;;;;;;;;;5049692;28;20029;-78
2022/08/13 14:40:06;;;;;;;5.55;1.60;;;;;;;;;;5051272;28;20032;-77
2022/08/13 14:42:44;;;;;;;4.32;1.70;;;;;;;;;;5050835;28;20064;-77
2022/08/13 14:47:56;;;;;;;2.83;1.35;;;;;;;;;;5052409;28;20035;-77
2022/08/13 14:50:22;;;;;;;3.35;1.60;;;;;;;;;;5059301;28;20099;-80
2022/08/13 14:52:49;;;;;;;3.92;1.40;;;;;;;;;;5057193;28;20029;-75
2022/08/13 14:55:17;;;;;;;2.70;1.55;;;;;;;;;;5057779;28;20083;-74
2022/08/13 14:57:42;;;;;;;2.45;1.60;;;;;;;;;;5057698;28;20025;-76
2022/08/13 15:00:10;;;;;;;2.90;1.60;;;;;;;;;;5056099;28;20021;-75
2022/08/13 15:02:37;;;;;;;2.63;1.50;;;;;;;;;;5058516;28;20451;-76
2022/08/13 15:05:05;;;;;;;1.85;1.40;;;;;;;;;;5060698;28;20040;-78
2022/08/13 15:07:32;;;;;;;2.78;1.50;;;;;;;;;;5061296;28;20309;-76
2022/08/13 15:10:00;;;;;;;3.15;1.40;;;;;;;;;;5061889;28;20329;-77
2022/08/13 15:12:26;;;;;;;1.70;1.40;;;;;;;;;;5060324;28;20035;-76